sensor_id;sensor_type;location;lat;lon;timestamp;temperature;humidity
63047;DHT22;62025;39.238;9.126;2023-06-14T00:02:12;24.40;69.70
63047;DHT22;62025;39.238;9.126;2023-06-14T00:04:38;24.40;69.90
63047;DHT22;62025;39.238;9.126;2023-06-14T00:07:07;24.30;70.10
63047;DHT22;62025;39.238;9.126;2023-06-14T00:09:34;24.30;70.10
63047;DHT22;62025;39.238;9.126;2023-06-14T00:12:01;24.30;70.50
63047;DHT22;62025;39.238;9.126;2023-06-14T00:14:27;24.20;70.80
63047;DHT22;62025;39.238;9.126;2023-06-14T00:16:53;24.20;70.70
63047;DHT22;62025;39.238;9.126;2023-06-14T00:19:24;24.20;70.60
63047;DHT22;62025;39.238;9.126;2023-06-14T00:21:51;24.10;71.10
63047;DHT22;62025;39.238;9.126;2023-06-14T00:24:18;24.20;71.20
63047;DHT22;62025;39.238;9.126;2023-06-14T00:26:45;24.20;71.40
63047;DHT22;62025;39.238;9.126;2023-06-14T00:29:11;24.20;71.50
63047;DHT22;62025;39.238;9.126;2023-06-14T00:31:37;24.00;71.90
63047;DHT22;62025;39.238;9.126;2023-06-14T00:34:03;24.00;72.00
63047;DHT22;62025;39.238;9.126;2023-06-14T00:36:29;24.10;71.90
63047;DHT22;62025;39.238;9.126;2023-06-14T00:38:55;24.20;71.80
63047;DHT22;62025;39.238;9.126;2023-06-14T00:41:21;24.30;71.80
63047;DHT22;62025;39.238;9.126;2023-06-14T00:43:48;24.20;71.60
63047;DHT22;62025;39.238;9.126;2023-06-14T00:46:14;24.30;71.50
63047;DHT22;62025;39.238;9.126;2023-06-14T00:48:40;24.30;71.50
63047;DHT22;62025;39.238;9.126;2023-06-14T00:51:07;24.30;71.70
63047;DHT22;62025;39.238;9.126;2023-06-14T00:53:33;24.30;71.80
63047;DHT22;62025;39.238;9.126;2023-06-14T00:56:01;24.20;72.00
63047;DHT22;62025;39.238;9.126;2023-06-14T00:58:27;24.10;72.40
63047;DHT22;62025;39.238;9.126;2023-06-14T01:00:54;24.00;72.90
63047;DHT22;62025;39.238;9.126;2023-06-14T01:03:20;24.00;72.90
63047;DHT22;62025;39.238;9.126;2023-06-14T01:05:50;24.10;72.80
63047;DHT22;62025;39.238;9.126;2023-06-14T01:08:50;24.10;72.70
63047;DHT22;62025;39.238;9.126;2023-06-14T01:11:28;24.20;72.60
63047;DHT22;62025;39.238;9.126;2023-06-14T01:14:00;24.20;72.60
63047;DHT22;62025;39.238;9.126;2023-06-14T01:16:29;24.20;73.00
63047;DHT22;62025;39.238;9.126;2023-06-14T01:18:57;24.20;73.00
63047;DHT22;62025;39.238;9.126;2023-06-14T01:21:25;24.30;73.20
63047;DHT22;62025;39.238;9.126;2023-06-14T01:23:52;24.20;73.60
63047;DHT22;62025;39.238;9.126;2023-06-14T01:26:23;24.20;73.80
63047;DHT22;62025;39.238;9.126;2023-06-14T01:28:52;24.30;73.90
63047;DHT22;62025;39.238;9.126;2023-06-14T01:31:24;24.20;74.00
63047;DHT22;62025;39.238;9.126;2023-06-14T01:33:51;24.30;74.10
63047;DHT22;62025;39.238;9.126;2023-06-14T01:36:22;24.30;74.20
63047;DHT22;62025;39.238;9.126;2023-06-14T01:38:50;24.30;74.40
63047;DHT22;62025;39.238;9.126;2023-06-14T01:41:20;24.30;74.40
63047;DHT22;62025;39.238;9.126;2023-06-14T01:43:48;24.30;74.30
63047;DHT22;62025;39.238;9.126;2023-06-14T01:46:15;24.40;74.00
63047;DHT22;62025;39.238;9.126;2023-06-14T01:48:42;24.30;73.90
63047;DHT22;62025;39.238;9.126;2023-06-14T01:51:08;24.30;74.00
63047;DHT22;62025;39.238;9.126;2023-06-14T01:53:34;24.40;74.00
63047;DHT22;62025;39.238;9.126;2023-06-14T01:56:01;24.40;74.00
63047;DHT22;62025;39.238;9.126;2023-06-14T01:58:30;24.40;74.00
63047;DHT22;62025;39.238;9.126;2023-06-14T02:00:57;24.30;74.10
63047;DHT22;62025;39.238;9.126;2023-06-14T02:03:23;24.30;74.20
63047;DHT22;62025;39.238;9.126;2023-06-14T02:05:52;24.30;74.20
63047;DHT22;62025;39.238;9.126;2023-06-14T02:08:18;24.30;74.10
63047;DHT22;62025;39.238;9.126;2023-06-14T02:10:44;24.30;74.00
63047;DHT22;62025;39.238;9.126;2023-06-14T02:13:10;24.30;74.00
63047;DHT22;62025;39.238;9.126;2023-06-14T02:15:36;24.30;74.00
63047;DHT22;62025;39.238;9.126;2023-06-14T02:18:02;24.20;73.90
63047;DHT22;62025;39.238;9.126;2023-06-14T02:20:29;24.30;73.70
63047;DHT22;62025;39.238;9.126;2023-06-14T02:22:57;24.30;73.40
63047;DHT22;62025;39.238;9.126;2023-06-14T02:25:23;24.30;73.30
63047;DHT22;62025;39.238;9.126;2023-06-14T02:27:49;24.30;73.20
63047;DHT22;62025;39.238;9.126;2023-06-14T02:30:15;24.30;72.90
63047;DHT22;62025;39.238;9.126;2023-06-14T02:32:41;24.30;72.60
63047;DHT22;62025;39.238;9.126;2023-06-14T02:35:08;24.30;72.30
63047;DHT22;62025;39.238;9.126;2023-06-14T02:37:35;24.30;71.90
63047;DHT22;62025;39.238;9.126;2023-06-14T02:40:01;24.20;71.70
63047;DHT22;62025;39.238;9.126;2023-06-14T02:42:27;24.20;71.50
63047;DHT22;62025;39.238;9.126;2023-06-14T02:44:53;24.20;71.40
63047;DHT22;62025;39.238;9.126;2023-06-14T02:47:20;24.10;71.30
63047;DHT22;62025;39.238;9.126;2023-06-14T02:49:46;24.20;71.10
63047;DHT22;62025;39.238;9.126;2023-06-14T02:52:14;24.10;70.90
63047;DHT22;62025;39.238;9.126;2023-06-14T02:54:40;24.10;70.80
63047;DHT22;62025;39.238;9.126;2023-06-14T02:57:08;24.10;70.80
63047;DHT22;62025;39.238;9.126;2023-06-14T02:59:35;24.10;70.70
63047;DHT22;62025;39.238;9.126;2023-06-14T03:02:03;24.10;70.70
63047;DHT22;62025;39.238;9.126;2023-06-14T03:04:31;24.10;70.50
63047;DHT22;62025;39.238;9.126;2023-06-14T03:07:04;24.10;70.40
63047;DHT22;62025;39.238;9.126;2023-06-14T03:09:36;24.10;70.40
63047;DHT22;62025;39.238;9.126;2023-06-14T03:12:04;24.00;70.30
63047;DHT22;62025;39.238;9.126;2023-06-14T03:14:33;24.00;70.50
63047;DHT22;62025;39.238;9.126;2023-06-14T03:17:01;24.00;70.70
63047;DHT22;62025;39.238;9.126;2023-06-14T03:19:29;24.00;70.60
63047;DHT22;62025;39.238;9.126;2023-06-14T03:21:56;24.00;70.90
63047;DHT22;62025;39.238;9.126;2023-06-14T03:24:26;24.00;71.10
63047;DHT22;62025;39.238;9.126;2023-06-14T03:26:58;24.00;71.20
63047;DHT22;62025;39.238;9.126;2023-06-14T03:29:27;24.10;71.10
63047;DHT22;62025;39.238;9.126;2023-06-14T03:32:02;24.10;71.10
63047;DHT22;62025;39.238;9.126;2023-06-14T03:34:37;24.10;71.00
63047;DHT22;62025;39.238;9.126;2023-06-14T03:37:11;24.10;70.90
63047;DHT22;62025;39.238;9.126;2023-06-14T03:39:37;24.10;70.90
63047;DHT22;62025;39.238;9.126;2023-06-14T03:42:04;24.10;70.70
63047;DHT22;62025;39.238;9.126;2023-06-14T03:44:32;24.10;70.50
63047;DHT22;62025;39.238;9.126;2023-06-14T03:46:59;24.10;70.40
63047;DHT22;62025;39.238;9.126;2023-06-14T03:49:27;24.10;70.50
63047;DHT22;62025;39.238;9.126;2023-06-14T03:51:53;24.10;70.40
63047;DHT22;62025;39.238;9.126;2023-06-14T03:54:22;24.10;70.30
63047;DHT22;62025;39.238;9.126;2023-06-14T03:56:50;24.10;70.40
63047;DHT22;62025;39.238;9.126;2023-06-14T03:59:16;24.00;70.40
63047;DHT22;62025;39.238;9.126;2023-06-14T04:01:42;24.10;70.40
63047;DHT22;62025;39.238;9.126;2023-06-14T04:04:10;24.10;70.20
63047;DHT22;62025;39.238;9.126;2023-06-14T04:06:36;24.00;70.30
63047;DHT22;62025;39.238;9.126;2023-06-14T04:09:04;24.10;70.20
63047;DHT22;62025;39.238;9.126;2023-06-14T04:11:30;24.00;70.30
63047;DHT22;62025;39.238;9.126;2023-06-14T04:13:58;24.10;70.30
63047;DHT22;62025;39.238;9.126;2023-06-14T04:16:26;24.10;70.40
63047;DHT22;62025;39.238;9.126;2023-06-14T04:18:53;24.10;70.50
63047;DHT22;62025;39.238;9.126;2023-06-14T04:21:21;24.10;70.60
63047;DHT22;62025;39.238;9.126;2023-06-14T04:23:51;24.10;70.70
63047;DHT22;62025;39.238;9.126;2023-06-14T04:26:22;24.00;71.00
63047;DHT22;62025;39.238;9.126;2023-06-14T04:28:50;24.10;70.90
63047;DHT22;62025;39.238;9.126;2023-06-14T04:31:17;24.10;71.00
63047;DHT22;62025;39.238;9.126;2023-06-14T04:33:44;24.10;71.00
63047;DHT22;62025;39.238;9.126;2023-06-14T04:36:16;24.10;71.00
63047;DHT22;62025;39.238;9.126;2023-06-14T04:38:43;24.10;71.10
63047;DHT22;62025;39.238;9.126;2023-06-14T04:41:12;24.10;71.10
63047;DHT22;62025;39.238;9.126;2023-06-14T04:43:39;24.10;71.10
63047;DHT22;62025;39.238;9.126;2023-06-14T04:46:07;24.00;71.10
63047;DHT22;62025;39.238;9.126;2023-06-14T04:48:39;24.00;71.20
63047;DHT22;62025;39.238;9.126;2023-06-14T04:51:07;24.00;71.20
63047;DHT22;62025;39.238;9.126;2023-06-14T04:53:34;24.10;71.30
63047;DHT22;62025;39.238;9.126;2023-06-14T04:56:01;24.10;71.10
63047;DHT22;62025;39.238;9.126;2023-06-14T04:58:30;24.10;71.20
63047;DHT22;62025;39.238;9.126;2023-06-14T05:00:57;24.00;71.30
63047;DHT22;62025;39.238;9.126;2023-06-14T05:03:25;24.00;71.50
63047;DHT22;62025;39.238;9.126;2023-06-14T05:05:52;24.00;71.30
63047;DHT22;62025;39.238;9.126;2023-06-14T05:08:20;24.00;71.40
63047;DHT22;62025;39.238;9.126;2023-06-14T05:10:50;24.00;71.70
63047;DHT22;62025;39.238;9.126;2023-06-14T05:13:16;23.90;72.10
63047;DHT22;62025;39.238;9.126;2023-06-14T05:15:44;23.90;72.00
63047;DHT22;62025;39.238;9.126;2023-06-14T05:18:10;23.90;72.00
63047;DHT22;62025;39.238;9.126;2023-06-14T05:20:36;23.90;71.90
63047;DHT22;62025;39.238;9.126;2023-06-14T05:23:03;23.90;71.90
63047;DHT22;62025;39.238;9.126;2023-06-14T05:25:29;24.00;71.80
63047;DHT22;62025;39.238;9.126;2023-06-14T05:27:55;24.00;71.90
63047;DHT22;62025;39.238;9.126;2023-06-14T05:30:21;24.00;72.00
63047;DHT22;62025;39.238;9.126;2023-06-14T05:32:47;24.10;71.90
63047;DHT22;62025;39.238;9.126;2023-06-14T05:35:13;24.00;72.00
63047;DHT22;62025;39.238;9.126;2023-06-14T05:37:39;24.00;71.90
63047;DHT22;62025;39.238;9.126;2023-06-14T05:40:06;24.10;71.80
63047;DHT22;62025;39.238;9.126;2023-06-14T05:42:34;24.10;71.80
63047;DHT22;62025;39.238;9.126;2023-06-14T05:45:00;24.10;71.70
63047;DHT22;62025;39.238;9.126;2023-06-14T05:47:26;24.10;71.40
63047;DHT22;62025;39.238;9.126;2023-06-14T05:49:53;24.20;71.50
63047;DHT22;62025;39.238;9.126;2023-06-14T05:52:20;24.10;71.60
63047;DHT22;62025;39.238;9.126;2023-06-14T05:54:47;24.20;71.30
63047;DHT22;62025;39.238;9.126;2023-06-14T05:57:13;24.20;71.50
63047;DHT22;62025;39.238;9.126;2023-06-14T05:59:39;24.10;71.50
63047;DHT22;62025;39.238;9.126;2023-06-14T06:02:05;24.10;72.00
63047;DHT22;62025;39.238;9.126;2023-06-14T06:04:31;24.10;71.80
63047;DHT22;62025;39.238;9.126;2023-06-14T06:06:57;24.20;71.80
63047;DHT22;62025;39.238;9.126;2023-06-14T06:09:23;24.20;71.70
63047;DHT22;62025;39.238;9.126;2023-06-14T06:11:49;24.10;72.00
63047;DHT22;62025;39.238;9.126;2023-06-14T06:14:15;24.00;72.80
63047;DHT22;62025;39.238;9.126;2023-06-14T06:16:41;24.00;72.80
63047;DHT22;62025;39.238;9.126;2023-06-14T06:19:07;23.90;73.50
63047;DHT22;62025;39.238;9.126;2023-06-14T06:21:33;23.90;73.70
63047;DHT22;62025;39.238;9.126;2023-06-14T06:23:59;24.00;74.00
63047;DHT22;62025;39.238;9.126;2023-06-14T06:26:29;24.00;74.70
63047;DHT22;62025;39.238;9.126;2023-06-14T06:28:55;24.00;75.30
63047;DHT22;62025;39.238;9.126;2023-06-14T06:31:22;24.00;75.90
63047;DHT22;62025;39.238;9.126;2023-06-14T06:33:49;24.10;75.90
63047;DHT22;62025;39.238;9.126;2023-06-14T06:36:15;23.90;75.40
63047;DHT22;62025;39.238;9.126;2023-06-14T06:38:42;24.00;75.20
63047;DHT22;62025;39.238;9.126;2023-06-14T06:41:08;24.10;75.00
63047;DHT22;62025;39.238;9.126;2023-06-14T06:43:34;24.00;75.30
63047;DHT22;62025;39.238;9.126;2023-06-14T06:46:01;24.00;75.10
63047;DHT22;62025;39.238;9.126;2023-06-14T06:48:27;24.10;74.90
63047;DHT22;62025;39.238;9.126;2023-06-14T06:50:54;24.20;74.60
63047;DHT22;62025;39.238;9.126;2023-06-14T06:53:20;24.20;74.60
63047;DHT22;62025;39.238;9.126;2023-06-14T06:55:46;24.20;75.20
63047;DHT22;62025;39.238;9.126;2023-06-14T06:58:13;24.10;75.30
63047;DHT22;62025;39.238;9.126;2023-06-14T07:00:39;24.00;75.60
63047;DHT22;62025;39.238;9.126;2023-06-14T07:03:05;24.10;75.50
63047;DHT22;62025;39.238;9.126;2023-06-14T07:05:32;24.00;75.70
63047;DHT22;62025;39.238;9.126;2023-06-14T07:07:58;24.20;75.60
63047;DHT22;62025;39.238;9.126;2023-06-14T07:10:24;24.10;75.80
63047;DHT22;62025;39.238;9.126;2023-06-14T07:12:51;24.20;75.90
63047;DHT22;62025;39.238;9.126;2023-06-14T07:15:17;24.10;76.10
63047;DHT22;62025;39.238;9.126;2023-06-14T07:17:43;24.10;76.20
63047;DHT22;62025;39.238;9.126;2023-06-14T07:20:09;24.10;76.50
63047;DHT22;62025;39.238;9.126;2023-06-14T07:22:43;24.00;76.70
63047;DHT22;62025;39.238;9.126;2023-06-14T07:25:10;23.90;76.80
63047;DHT22;62025;39.238;9.126;2023-06-14T07:27:43;24.00;76.80
63047;DHT22;62025;39.238;9.126;2023-06-14T07:30:11;24.10;76.70
63047;DHT22;62025;39.238;9.126;2023-06-14T07:32:38;24.00;76.80
63047;DHT22;62025;39.238;9.126;2023-06-14T07:35:04;24.20;76.70
63047;DHT22;62025;39.238;9.126;2023-06-14T07:37:30;24.20;76.40
63047;DHT22;62025;39.238;9.126;2023-06-14T07:39:56;24.20;76.40
63047;DHT22;62025;39.238;9.126;2023-06-14T07:42:22;24.30;76.30
63047;DHT22;62025;39.238;9.126;2023-06-14T07:44:48;24.30;76.10
63047;DHT22;62025;39.238;9.126;2023-06-14T07:47:15;24.30;75.80
63047;DHT22;62025;39.238;9.126;2023-06-14T07:49:41;24.40;75.50
63047;DHT22;62025;39.238;9.126;2023-06-14T07:52:07;24.40;75.50
63047;DHT22;62025;39.238;9.126;2023-06-14T07:54:33;24.40;75.40
63047;DHT22;62025;39.238;9.126;2023-06-14T07:56:59;24.40;75.10
63047;DHT22;62025;39.238;9.126;2023-06-14T07:59:26;24.40;75.00
63047;DHT22;62025;39.238;9.126;2023-06-14T08:01:52;24.30;75.20
63047;DHT22;62025;39.238;9.126;2023-06-14T08:04:18;24.30;75.20
63047;DHT22;62025;39.238;9.126;2023-06-14T08:06:44;24.30;75.00
63047;DHT22;62025;39.238;9.126;2023-06-14T08:09:12;24.40;75.30
63047;DHT22;62025;39.238;9.126;2023-06-14T08:11:38;24.40;75.00
63047;DHT22;62025;39.238;9.126;2023-06-14T08:14:04;24.40;74.70
63047;DHT22;62025;39.238;9.126;2023-06-14T08:16:30;24.50;74.60
63047;DHT22;62025;39.238;9.126;2023-06-14T08:18:56;24.50;74.20
63047;DHT22;62025;39.238;9.126;2023-06-14T08:21:22;24.50;73.80
63047;DHT22;62025;39.238;9.126;2023-06-14T08:23:49;24.50;74.10
63047;DHT22;62025;39.238;9.126;2023-06-14T08:26:18;24.40;74.30
63047;DHT22;62025;39.238;9.126;2023-06-14T08:28:44;24.40;74.50
63047;DHT22;62025;39.238;9.126;2023-06-14T08:31:11;24.50;74.30
63047;DHT22;62025;39.238;9.126;2023-06-14T08:33:37;24.50;73.90
63047;DHT22;62025;39.238;9.126;2023-06-14T08:36:03;24.60;73.80
63047;DHT22;62025;39.238;9.126;2023-06-14T08:38:29;24.60;73.70
63047;DHT22;62025;39.238;9.126;2023-06-14T08:40:57;24.50;73.60
63047;DHT22;62025;39.238;9.126;2023-06-14T08:43:24;24.70;74.00
63047;DHT22;62025;39.238;9.126;2023-06-14T08:45:56;24.90;73.00
63047;DHT22;62025;39.238;9.126;2023-06-14T08:48:26;24.90;72.10
63047;DHT22;62025;39.238;9.126;2023-06-14T08:50:55;24.90;71.00
63047;DHT22;62025;39.238;9.126;2023-06-14T08:53:29;25.10;70.50
63047;DHT22;62025;39.238;9.126;2023-06-14T08:55:59;25.10;69.40
63047;DHT22;62025;39.238;9.126;2023-06-14T08:58:33;25.20;69.10
63047;DHT22;62025;39.238;9.126;2023-06-14T09:01:01;25.20;69.10
63047;DHT22;62025;39.238;9.126;2023-06-14T09:03:27;25.20;69.30
63047;DHT22;62025;39.238;9.126;2023-06-14T09:05:58;25.20;69.10
63047;DHT22;62025;39.238;9.126;2023-06-14T09:08:27;25.20;69.00
63047;DHT22;62025;39.238;9.126;2023-06-14T09:10:57;25.20;69.40
63047;DHT22;62025;39.238;9.126;2023-06-14T09:13:23;25.10;69.70
63047;DHT22;62025;39.238;9.126;2023-06-14T09:15:50;25.10;69.50
63047;DHT22;62025;39.238;9.126;2023-06-14T09:18:16;25.10;69.50
63047;DHT22;62025;39.238;9.126;2023-06-14T09:20:43;25.10;69.20
63047;DHT22;62025;39.238;9.126;2023-06-14T09:23:09;25.10;67.20
63047;DHT22;62025;39.238;9.126;2023-06-14T09:25:45;25.10;65.60
63047;DHT22;62025;39.238;9.126;2023-06-14T09:28:12;25.10;65.70
63047;DHT22;62025;39.238;9.126;2023-06-14T09:30:38;25.10;66.40
63047;DHT22;62025;39.238;9.126;2023-06-14T09:33:04;25.10;66.60
63047;DHT22;62025;39.238;9.126;2023-06-14T09:35:33;25.10;67.30
63047;DHT22;62025;39.238;9.126;2023-06-14T09:38:00;25.20;67.50
63047;DHT22;62025;39.238;9.126;2023-06-14T09:40:26;25.20;67.90
63047;DHT22;62025;39.238;9.126;2023-06-14T09:42:53;25.20;68.10
63047;DHT22;62025;39.238;9.126;2023-06-14T09:45:21;25.20;68.30
63047;DHT22;62025;39.238;9.126;2023-06-14T09:47:49;25.30;68.40
63047;DHT22;62025;39.238;9.126;2023-06-14T09:50:15;25.30;68.10
63047;DHT22;62025;39.238;9.126;2023-06-14T09:52:43;25.20;68.00
63047;DHT22;62025;39.238;9.126;2023-06-14T09:55:13;25.20;68.70
63047;DHT22;62025;39.238;9.126;2023-06-14T09:57:45;25.20;69.20
63047;DHT22;62025;39.238;9.126;2023-06-14T10:00:14;25.20;69.90
63047;DHT22;62025;39.238;9.126;2023-06-14T10:02:42;25.20;70.40
63047;DHT22;62025;39.238;9.126;2023-06-14T10:05:15;25.20;71.10
63047;DHT22;62025;39.238;9.126;2023-06-14T10:10:14;25.10;71.50
63047;DHT22;62025;39.238;9.126;2023-06-14T10:12:40;25.10;71.50
63047;DHT22;62025;39.238;9.126;2023-06-14T10:15:10;25.10;71.80
63047;DHT22;62025;39.238;9.126;2023-06-14T10:17:51;25.10;71.80
63047;DHT22;62025;39.238;9.126;2023-06-14T10:20:42;25.10;71.70
63047;DHT22;62025;39.238;9.126;2023-06-14T10:23:18;25.10;71.80
63047;DHT22;62025;39.238;9.126;2023-06-14T10:25:50;25.10;71.50
63047;DHT22;62025;39.238;9.126;2023-06-14T10:28:22;25.00;71.70
63047;DHT22;62025;39.238;9.126;2023-06-14T10:31:11;25.00;71.70
63047;DHT22;62025;39.238;9.126;2023-06-14T10:33:40;25.00;71.20
63047;DHT22;62025;39.238;9.126;2023-06-14T10:36:29;25.00;71.30
63047;DHT22;62025;39.238;9.126;2023-06-14T10:39:17;24.90;71.80
63047;DHT22;62025;39.238;9.126;2023-06-14T10:41:54;24.90;72.20
63047;DHT22;62025;39.238;9.126;2023-06-14T10:46:53;24.70;72.60
63047;DHT22;62025;39.238;9.126;2023-06-14T10:49:42;24.70;72.70
63047;DHT22;62025;39.238;9.126;2023-06-14T10:52:14;24.70;72.60
63047;DHT22;62025;39.238;9.126;2023-06-14T10:57:26;24.40;74.00
63047;DHT22;62025;39.238;9.126;2023-06-14T10:59:52;24.50;74.20
63047;DHT22;62025;39.238;9.126;2023-06-14T11:05:30;24.30;70.80
63047;DHT22;62025;39.238;9.126;2023-06-14T11:11:14;24.10;71.50
63047;DHT22;62025;39.238;9.126;2023-06-14T11:13:44;24.00;71.30
63047;DHT22;62025;39.238;9.126;2023-06-14T11:16:18;23.90;72.10
63047;DHT22;62025;39.238;9.126;2023-06-14T11:18:47;23.90;71.90
63047;DHT22;62025;39.238;9.126;2023-06-14T11:21:18;23.80;71.20
63047;DHT22;62025;39.238;9.126;2023-06-14T11:23:51;23.80;72.50
63047;DHT22;62025;39.238;9.126;2023-06-14T11:26:28;23.70;72.50
63047;DHT22;62025;39.238;9.126;2023-06-14T11:28:56;23.70;72.40
63047;DHT22;62025;39.238;9.126;2023-06-14T11:31:23;23.70;72.40
63047;DHT22;62025;39.238;9.126;2023-06-14T11:33:50;23.60;72.80
63047;DHT22;62025;39.238;9.126;2023-06-14T11:36:17;23.70;72.90
63047;DHT22;62025;39.238;9.126;2023-06-14T11:38:43;23.50;73.30
63047;DHT22;62025;39.238;9.126;2023-06-14T11:41:09;23.60;73.70
63047;DHT22;62025;39.238;9.126;2023-06-14T11:43:35;23.50;74.00
63047;DHT22;62025;39.238;9.126;2023-06-14T11:46:01;23.50;73.70
63047;DHT22;62025;39.238;9.126;2023-06-14T11:48:43;23.60;74.10
63047;DHT22;62025;39.238;9.126;2023-06-14T11:51:09;23.60;74.60
63047;DHT22;62025;39.238;9.126;2023-06-14T11:53:36;23.50;74.90
63047;DHT22;62025;39.238;9.126;2023-06-14T11:56:03;23.50;74.70
63047;DHT22;62025;39.238;9.126;2023-06-14T11:58:29;23.40;74.60
63047;DHT22;62025;39.238;9.126;2023-06-14T12:00:56;23.40;74.60
63047;DHT22;62025;39.238;9.126;2023-06-14T12:03:26;23.40;74.50
63047;DHT22;62025;39.238;9.126;2023-06-14T12:06:05;23.40;74.10
63047;DHT22;62025;39.238;9.126;2023-06-14T12:08:38;23.40;72.70
63047;DHT22;62025;39.238;9.126;2023-06-14T12:11:14;23.40;73.20
63047;DHT22;62025;39.238;9.126;2023-06-14T12:13:44;23.40;73.10
63047;DHT22;62025;39.238;9.126;2023-06-14T12:16:11;23.30;72.50
63047;DHT22;62025;39.238;9.126;2023-06-14T12:18:39;23.20;71.90
63047;DHT22;62025;39.238;9.126;2023-06-14T12:21:07;23.30;71.70
63047;DHT22;62025;39.238;9.126;2023-06-14T12:23:47;23.40;72.70
63047;DHT22;62025;39.238;9.126;2023-06-14T12:26:18;23.40;73.10
63047;DHT22;62025;39.238;9.126;2023-06-14T12:28:46;23.40;72.20
63047;DHT22;62025;39.238;9.126;2023-06-14T12:31:14;23.30;71.60
63047;DHT22;62025;39.238;9.126;2023-06-14T12:33:41;23.30;71.40
63047;DHT22;62025;39.238;9.126;2023-06-14T12:36:09;23.40;71.30
63047;DHT22;62025;39.238;9.126;2023-06-14T12:38:36;23.40;71.40
63047;DHT22;62025;39.238;9.126;2023-06-14T12:41:03;23.40;71.30
63047;DHT22;62025;39.238;9.126;2023-06-14T12:43:29;23.40;71.40
63047;DHT22;62025;39.238;9.126;2023-06-14T12:45:55;23.40;71.60
63047;DHT22;62025;39.238;9.126;2023-06-14T12:48:21;23.50;71.70
63047;DHT22;62025;39.238;9.126;2023-06-14T12:50:48;23.50;72.50
63047;DHT22;62025;39.238;9.126;2023-06-14T12:53:14;23.60;72.30
63047;DHT22;62025;39.238;9.126;2023-06-14T12:55:40;23.70;72.50
63047;DHT22;62025;39.238;9.126;2023-06-14T12:58:06;23.70;72.20
63047;DHT22;62025;39.238;9.126;2023-06-14T13:00:32;23.70;71.20
63047;DHT22;62025;39.238;9.126;2023-06-14T13:02:58;23.70;71.00
63047;DHT22;62025;39.238;9.126;2023-06-14T13:05:24;23.70;71.40
63047;DHT22;62025;39.238;9.126;2023-06-14T13:07:50;23.60;71.30
63047;DHT22;62025;39.238;9.126;2023-06-14T13:10:17;23.70;71.40
63047;DHT22;62025;39.238;9.126;2023-06-14T13:12:43;23.80;71.40
63047;DHT22;62025;39.238;9.126;2023-06-14T13:15:09;23.80;71.50
63047;DHT22;62025;39.238;9.126;2023-06-14T13:17:36;23.70;69.70
63047;DHT22;62025;39.238;9.126;2023-06-14T13:20:08;23.70;70.20
63047;DHT22;62025;39.238;9.126;2023-06-14T13:22:35;23.70;70.50
63047;DHT22;62025;39.238;9.126;2023-06-14T13:25:01;23.80;70.50
63047;DHT22;62025;39.238;9.126;2023-06-14T13:27:28;23.80;70.10
63047;DHT22;62025;39.238;9.126;2023-06-14T13:29:55;23.80;69.70
63047;DHT22;62025;39.238;9.126;2023-06-14T13:32:21;23.80;70.40
63047;DHT22;62025;39.238;9.126;2023-06-14T13:34:48;23.80;70.50
63047;DHT22;62025;39.238;9.126;2023-06-14T13:37:14;23.90;70.00
63047;DHT22;62025;39.238;9.126;2023-06-14T13:39:40;23.90;70.30
63047;DHT22;62025;39.238;9.126;2023-06-14T13:42:06;23.90;69.60
63047;DHT22;62025;39.238;9.126;2023-06-14T13:44:32;24.00;69.10
63047;DHT22;62025;39.238;9.126;2023-06-14T13:46:59;24.00;69.10
63047;DHT22;62025;39.238;9.126;2023-06-14T13:49:25;24.00;68.80
63047;DHT22;62025;39.238;9.126;2023-06-14T13:51:52;24.10;69.10
63047;DHT22;62025;39.238;9.126;2023-06-14T13:54:20;24.10;68.10
63047;DHT22;62025;39.238;9.126;2023-06-14T13:56:47;24.30;69.00
63047;DHT22;62025;39.238;9.126;2023-06-14T13:59:13;24.30;66.60
63047;DHT22;62025;39.238;9.126;2023-06-14T14:01:39;24.30;66.10
63047;DHT22;62025;39.238;9.126;2023-06-14T14:04:05;24.10;64.50
63047;DHT22;62025;39.238;9.126;2023-06-14T14:06:31;24.00;65.70
63047;DHT22;62025;39.238;9.126;2023-06-14T14:08:57;24.10;65.90
63047;DHT22;62025;39.238;9.126;2023-06-14T14:11:24;24.00;65.50
63047;DHT22;62025;39.238;9.126;2023-06-14T14:13:49;23.90;66.60
63047;DHT22;62025;39.238;9.126;2023-06-14T14:16:15;23.90;67.00
63047;DHT22;62025;39.238;9.126;2023-06-14T14:18:42;23.90;68.00
63047;DHT22;62025;39.238;9.126;2023-06-14T14:21:08;23.90;67.50
63047;DHT22;62025;39.238;9.126;2023-06-14T14:23:35;23.90;67.20
63047;DHT22;62025;39.238;9.126;2023-06-14T14:26:01;23.70;68.30
63047;DHT22;62025;39.238;9.126;2023-06-14T14:28:30;23.80;67.10
63047;DHT22;62025;39.238;9.126;2023-06-14T14:30:56;23.90;67.40
63047;DHT22;62025;39.238;9.126;2023-06-14T14:33:22;23.90;66.50
63047;DHT22;62025;39.238;9.126;2023-06-14T14:35:48;23.80;67.10
63047;DHT22;62025;39.238;9.126;2023-06-14T14:38:15;23.80;67.20
63047;DHT22;62025;39.238;9.126;2023-06-14T14:40:42;23.70;66.80
63047;DHT22;62025;39.238;9.126;2023-06-14T14:43:09;23.30;67.60
63047;DHT22;62025;39.238;9.126;2023-06-14T14:45:36;23.00;68.80
63047;DHT22;62025;39.238;9.126;2023-06-14T14:48:02;23.20;69.00
63047;DHT22;62025;39.238;9.126;2023-06-14T14:50:29;23.40;68.10
63047;DHT22;62025;39.238;9.126;2023-06-14T14:52:55;23.40;66.30
63047;DHT22;62025;39.238;9.126;2023-06-14T14:55:22;23.50;66.40
63047;DHT22;62025;39.238;9.126;2023-06-14T14:57:48;23.50;65.60
63047;DHT22;62025;39.238;9.126;2023-06-14T15:00:14;23.60;65.30
63047;DHT22;62025;39.238;9.126;2023-06-14T15:02:40;23.80;65.70
63047;DHT22;62025;39.238;9.126;2023-06-14T15:05:06;23.80;64.70
63047;DHT22;62025;39.238;9.126;2023-06-14T15:07:33;23.90;65.40
63047;DHT22;62025;39.238;9.126;2023-06-14T15:10:00;23.70;64.60
63047;DHT22;62025;39.238;9.126;2023-06-14T15:12:26;23.80;65.80
63047;DHT22;62025;39.238;9.126;2023-06-14T15:14:52;23.90;65.40
63047;DHT22;62025;39.238;9.126;2023-06-14T15:17:19;23.80;65.60
63047;DHT22;62025;39.238;9.126;2023-06-14T15:19:46;23.80;64.90
63047;DHT22;62025;39.238;9.126;2023-06-14T15:22:13;23.80;63.80
63047;DHT22;62025;39.238;9.126;2023-06-14T15:24:42;23.80;64.70
63047;DHT22;62025;39.238;9.126;2023-06-14T15:27:10;23.90;64.70
63047;DHT22;62025;39.238;9.126;2023-06-14T15:29:38;23.70;65.30
63047;DHT22;62025;39.238;9.126;2023-06-14T15:32:05;23.90;66.60
63047;DHT22;62025;39.238;9.126;2023-06-14T15:34:32;24.10;66.30
63047;DHT22;62025;39.238;9.126;2023-06-14T15:36:58;23.90;65.30
63047;DHT22;62025;39.238;9.126;2023-06-14T15:39:25;23.90;66.50
63047;DHT22;62025;39.238;9.126;2023-06-14T15:41:52;24.10;65.40
63047;DHT22;62025;39.238;9.126;2023-06-14T15:44:18;24.20;65.40
63047;DHT22;62025;39.238;9.126;2023-06-14T15:46:45;24.00;64.60
63047;DHT22;62025;39.238;9.126;2023-06-14T15:49:12;24.00;65.30